Genco Auvergne — V7ES3 — position and weather

sailwx.info

Track history (hours):
 
Tides and Currents Weather Stations Pressure Air Temp Water Temp Dewpoint Dewpoint Depression Visibility Wind Speed Wind Dir Waves Ship Positions

Genco Auvergne

Last reported at 2016-May-27 03:12 UTC. Time now 2016-Jun-27 09:38 UTC.
Position N 29°43' W 093°51'.
Warning: this ship's position is 31 days out of date.

Length 190 m; draft 6.9 m.

Type: Cargo ship. MMSI: 538002570.

Date/timePositionNaut miles runAvg speedWind from/ knotsBaromVisibWave heightAir tempDewpointWater temp
2016-May-27 03:12N 29°43' W 093°51'14 7.5
2016-May-27 01:20N 29°56' W 093°52'  
2016-May-24 18:06N 29°59' W 093°53'1 0.1
2016-May-24 08:05N 29°59' W 093°55'0 0.0
2016-May-24 04:29N 29°59' W 093°55'0 0.0
2016-May-23 02:17N 29°59' W 093°55'0 0.0
2016-May-22 21:27N 29°59' W 093°55'4 4.0
2016-May-22 20:33N 29°57' W 093°52'8 7.3
2016-May-22 19:24N 29°50' W 093°57'7 8.3
2016-May-22 18:32N 29°44' W 093°52'10 9.0
2016-May-22 17:26N 29°35' W 093°47'3 1.5
2016-May-22 15:13N 29°34' W 093°43'0 0.0
2016-May-22 14:22N 29°34' W 093°43'0 0.0
2016-May-22 13:31N 29°34' W 093°43'  
Track history (hours):
 
Tides and Currents Weather Stations Pressure Air Temp Water Temp Dewpoint Dewpoint Depression Visibility Wind Speed Wind Dir Waves Ship Positions

Genco Auvergne

Last reported at 2016-May-27 03:12 UTC. Time now 2016-Jun-27 09:38 UTC.
Position N 29°43' W 093°51'.
Warning: this ship's position is 31 days out of date.

Length 190 m; draft 6.9 m.

Type: Cargo ship. MMSI: 538002570.

Date/timePositionNaut miles runAvg speedWind from/ knotsBaromVisibWave heightAir tempDewpointWater temp
2016-May-27 03:12N 29°43' W 093°51'14 7.5
2016-May-27 01:20N 29°56' W 093°52'  
2016-May-24 18:06N 29°59' W 093°53'1 0.1
2016-May-24 08:05N 29°59' W 093°55'0 0.0
2016-May-24 04:29N 29°59' W 093°55'0 0.0
2016-May-23 02:17N 29°59' W 093°55'0 0.0
2016-May-22 21:27N 29°59' W 093°55'4 4.0
2016-May-22 20:33N 29°57' W 093°52'8 7.3
2016-May-22 19:24N 29°50' W 093°57'7 8.3
2016-May-22 18:32N 29°44' W 093°52'10 9.0
2016-May-22 17:26N 29°35' W 093°47'3 1.5
2016-May-22 15:13N 29°34' W 093°43'0 0.0
2016-May-22 14:22N 29°34' W 093°43'0 0.0
2016-May-22 13:31N 29°34' W 093°43'  

Dump ship's entire track history